Yangquan, China
Current Conditions -  °F | °C
As of 6:00 PM on Thursday 23 Oct 2014 (Local Time) from ZBYN Reporting Station
Haze Haze  
Wind Chill: 61°   Ceiling: Unl
Heat Index: 61°   Visibility: 1.2mi
Dew Point: 46°   Wind: 4mph
Humidity: 59%   Direction: 110°ESE
Pressure: 29.94"   Gusts: NA
Location:  37.87°N, 113.57°E
Report Text: ZBYN 231000Z 11002MPS 2000 HZ NSC 16/08 Q1014 NOSIG
Loading
Personal Weather Stations






























Interactive Weather Map
Tropical Storm Tracking
New forecast layout! Learn more

10-Day Weather Forecast

Advertisements
Track Severe Weather on mobile